Lubbock/Reese AFB, Texas
Current Conditions -  °F | °C
As of 6:53 PM on Monday 26 Jan 2015 (Local Time) from KLBB Reporting Station
Clear Clear  
Wind Chill: 55°   Ceiling: Unl
Heat Index: 55°   Visibility: 10mi
Dew Point: 33°   Wind: 6mph
Humidity: 43%   Direction: 290°WNW
Pressure: 30.2"   Gusts: NA
Location:  33.6°N, 102.07°W
Report Text: KLBB 270053Z 29005KT 10SM CLR 13/01 A3020 RMK AO2 SLP219 T01280006
Loading
Personal Weather Stations






























Interactive Weather Map New forecast layout! Learn more

10-Day Weather Forecast

Advertisements
Track Severe Weather on mobile